Aviation Digital Data Service (ADDS)

Output produced by TAFs form (1014 UTC 26 July 2016)
found at http://www.aviationweather.gov/adds/tafs/
 
KSBY 260538Z 2606/2706 24005KT P6SM SCT100 
     FM261100 28004KT P6SM SCT100 
     FM262200 24005KT P6SM SCT100 
     FM270000 VRB04KT P6SM BKN100